sensor_id;sensor_type;location;lat;lon;timestamp;P1;durP1;ratioP1;P2;durP2;ratioP2
59418;SDS011;45224;50.904;6.038;2024-01-15T00:00:18;26.55;;;9.45;;
59418;SDS011;45224;50.904;6.038;2024-01-15T00:01:49;27.48;;;9.90;;
59418;SDS011;45224;50.904;6.038;2024-01-15T00:03:19;28.40;;;10.60;;
59418;SDS011;45224;50.904;6.038;2024-01-15T00:04:50;25.00;;;8.80;;
59418;SDS011;45224;50.904;6.038;2024-01-15T00:06:20;29.05;;;10.10;;
59418;SDS011;45224;50.904;6.038;2024-01-15T00:07:51;29.38;;;10.00;;
59418;SDS011;45224;50.904;6.038;2024-01-15T00:09:21;27.13;;;9.50;;
59418;SDS011;45224;50.904;6.038;2024-01-15T00:10:52;26.85;;;9.30;;
59418;SDS011;45224;50.904;6.038;2024-01-15T00:12:22;31.08;;;10.07;;
59418;SDS011;45224;50.904;6.038;2024-01-15T00:13:53;29.23;;;10.68;;
59418;SDS011;45224;50.904;6.038;2024-01-15T00:15:23;27.90;;;9.35;;
59418;SDS011;45224;50.904;6.038;2024-01-15T00:16:54;28.23;;;10.20;;
59418;SDS011;45224;50.904;6.038;2024-01-15T00:18:25;27.15;;;10.40;;
59418;SDS011;45224;50.904;6.038;2024-01-15T00:19:55;26.73;;;10.10;;
59418;SDS011;45224;50.904;6.038;2024-01-15T00:21:26;25.48;;;9.32;;
59418;SDS011;45224;50.904;6.038;2024-01-15T00:22:58;22.23;;;8.57;;
59418;SDS011;45224;50.904;6.038;2024-01-15T00:24:28;28.35;;;9.55;;
59418;SDS011;45224;50.904;6.038;2024-01-15T00:25:58;28.63;;;10.68;;
59418;SDS011;45224;50.904;6.038;2024-01-15T00:27:29;26.88;;;9.32;;
59418;SDS011;45224;50.904;6.038;2024-01-15T00:28:59;28.20;;;9.65;;
59418;SDS011;45224;50.904;6.038;2024-01-15T00:30:30;27.08;;;9.60;;
59418;SDS011;45224;50.904;6.038;2024-01-15T00:32:00;26.27;;;10.35;;
59418;SDS011;45224;50.904;6.038;2024-01-15T00:33:31;25.25;;;9.20;;
59418;SDS011;45224;50.904;6.038;2024-01-15T00:35:01;29.15;;;9.77;;
59418;SDS011;45224;50.904;6.038;2024-01-15T00:36:33;30.23;;;10.30;;
59418;SDS011;45224;50.904;6.038;2024-01-15T00:38:03;29.73;;;9.90;;
59418;SDS011;45224;50.904;6.038;2024-01-15T00:39:34;26.30;;;9.40;;
59418;SDS011;45224;50.904;6.038;2024-01-15T00:41:04;27.10;;;9.15;;
59418;SDS011;45224;50.904;6.038;2024-01-15T00:42:35;30.08;;;9.82;;
59418;SDS011;45224;50.904;6.038;2024-01-15T00:44:05;29.15;;;10.80;;
59418;SDS011;45224;50.904;6.038;2024-01-15T00:45:37;29.70;;;9.95;;
59418;SDS011;45224;50.904;6.038;2024-01-15T00:47:07;24.35;;;8.85;;
59418;SDS011;45224;50.904;6.038;2024-01-15T00:48:38;22.55;;;8.18;;
59418;SDS011;45224;50.904;6.038;2024-01-15T00:50:08;28.08;;;10.50;;
59418;SDS011;45224;50.904;6.038;2024-01-15T00:51:39;25.23;;;8.60;;
59418;SDS011;45224;50.904;6.038;2024-01-15T00:53:10;26.70;;;8.75;;
59418;SDS011;45224;50.904;6.038;2024-01-15T00:54:40;23.05;;;9.50;;
59418;SDS011;45224;50.904;6.038;2024-01-15T00:56:11;27.92;;;8.60;;
59418;SDS011;45224;50.904;6.038;2024-01-15T00:57:41;25.90;;;10.15;;
59418;SDS011;45224;50.904;6.038;2024-01-15T00:59:12;30.48;;;9.90;;
59418;SDS011;45224;50.904;6.038;2024-01-15T01:00:44;25.10;;;9.23;;
59418;SDS011;45224;50.904;6.038;2024-01-15T01:02:15;26.13;;;9.65;;
59418;SDS011;45224;50.904;6.038;2024-01-15T01:03:45;32.83;;;9.88;;
59418;SDS011;45224;50.904;6.038;2024-01-15T01:05:16;28.38;;;9.07;;
59418;SDS011;45224;50.904;6.038;2024-01-15T01:06:46;22.88;;;8.48;;
59418;SDS011;45224;50.904;6.038;2024-01-15T01:08:17;27.33;;;9.25;;
59418;SDS011;45224;50.904;6.038;2024-01-15T01:09:47;29.70;;;9.90;;
59418;SDS011;45224;50.904;6.038;2024-01-15T01:11:18;28.45;;;9.50;;
59418;SDS011;45224;50.904;6.038;2024-01-15T01:12:48;27.23;;;9.65;;
59418;SDS011;45224;50.904;6.038;2024-01-15T01:14:19;28.83;;;10.00;;
59418;SDS011;45224;50.904;6.038;2024-01-15T01:15:49;24.95;;;9.48;;
59418;SDS011;45224;50.904;6.038;2024-01-15T01:17:20;28.98;;;9.80;;
59418;SDS011;45224;50.904;6.038;2024-01-15T01:18:50;27.30;;;10.23;;
59418;SDS011;45224;50.904;6.038;2024-01-15T01:20:20;26.90;;;9.25;;
59418;SDS011;45224;50.904;6.038;2024-01-15T01:21:51;28.20;;;9.35;;
59418;SDS011;45224;50.904;6.038;2024-01-15T01:23:21;28.70;;;9.25;;
59418;SDS011;45224;50.904;6.038;2024-01-15T01:24:52;25.20;;;9.45;;
59418;SDS011;45224;50.904;6.038;2024-01-15T01:26:22;26.27;;;10.45;;
59418;SDS011;45224;50.904;6.038;2024-01-15T01:27:53;27.42;;;10.32;;
59418;SDS011;45224;50.904;6.038;2024-01-15T01:29:23;27.92;;;9.65;;
59418;SDS011;45224;50.904;6.038;2024-01-15T01:30:54;25.73;;;9.75;;
59418;SDS011;45224;50.904;6.038;2024-01-15T01:32:25;29.73;;;9.73;;
59418;SDS011;45224;50.904;6.038;2024-01-15T01:33:55;23.88;;;9.32;;
59418;SDS011;45224;50.904;6.038;2024-01-15T01:35:25;24.63;;;8.82;;
59418;SDS011;45224;50.904;6.038;2024-01-15T01:36:56;29.23;;;10.30;;
59418;SDS011;45224;50.904;6.038;2024-01-15T01:38:26;32.45;;;9.95;;
59418;SDS011;45224;50.904;6.038;2024-01-15T01:39:57;24.58;;;9.88;;
59418;SDS011;45224;50.904;6.038;2024-01-15T01:41:27;27.08;;;8.98;;
59418;SDS011;45224;50.904;6.038;2024-01-15T01:42:58;28.58;;;10.40;;
59418;SDS011;45224;50.904;6.038;2024-01-15T01:44:28;27.52;;;11.07;;
59418;SDS011;45224;50.904;6.038;2024-01-15T01:45:59;26.52;;;9.95;;
59418;SDS011;45224;50.904;6.038;2024-01-15T01:47:31;25.40;;;10.13;;
59418;SDS011;45224;50.904;6.038;2024-01-15T01:49:02;28.27;;;9.68;;
59418;SDS011;45224;50.904;6.038;2024-01-15T01:50:35;30.98;;;11.32;;
59418;SDS011;45224;50.904;6.038;2024-01-15T01:52:06;27.95;;;9.88;;
59418;SDS011;45224;50.904;6.038;2024-01-15T01:53:37;29.00;;;11.00;;
59418;SDS011;45224;50.904;6.038;2024-01-15T01:55:08;26.48;;;10.15;;
59418;SDS011;45224;50.904;6.038;2024-01-15T01:56:41;30.17;;;10.60;;
59418;SDS011;45224;50.904;6.038;2024-01-15T01:58:12;27.83;;;11.60;;
59418;SDS011;45224;50.904;6.038;2024-01-15T01:59:42;28.30;;;10.88;;
59418;SDS011;45224;50.904;6.038;2024-01-15T02:01:13;29.02;;;10.18;;
59418;SDS011;45224;50.904;6.038;2024-01-15T02:02:45;25.75;;;10.15;;
59418;SDS011;45224;50.904;6.038;2024-01-15T02:04:16;29.02;;;10.70;;
59418;SDS011;45224;50.904;6.038;2024-01-15T02:05:47;29.52;;;11.63;;
59418;SDS011;45224;50.904;6.038;2024-01-15T02:07:19;31.52;;;11.30;;
59418;SDS011;45224;50.904;6.038;2024-01-15T02:08:50;28.42;;;10.80;;
59418;SDS011;45224;50.904;6.038;2024-01-15T02:10:21;30.80;;;11.50;;
59418;SDS011;45224;50.904;6.038;2024-01-15T02:11:52;33.40;;;11.65;;
59418;SDS011;45224;50.904;6.038;2024-01-15T02:13:23;27.65;;;9.93;;
59418;SDS011;45224;50.904;6.038;2024-01-15T02:14:53;30.50;;;11.00;;
59418;SDS011;45224;50.904;6.038;2024-01-15T02:16:23;27.73;;;11.15;;
59418;SDS011;45224;50.904;6.038;2024-01-15T02:18:00;31.15;;;12.00;;
59418;SDS011;45224;50.904;6.038;2024-01-15T02:19:32;24.38;;;10.40;;
59418;SDS011;45224;50.904;6.038;2024-01-15T02:21:03;28.05;;;10.73;;
59418;SDS011;45224;50.904;6.038;2024-01-15T02:22:33;27.10;;;10.93;;
59418;SDS011;45224;50.904;6.038;2024-01-15T02:24:04;30.13;;;11.15;;
59418;SDS011;45224;50.904;6.038;2024-01-15T02:25:35;29.05;;;11.23;;
59418;SDS011;45224;50.904;6.038;2024-01-15T02:27:07;34.38;;;12.27;;
59418;SDS011;45224;50.904;6.038;2024-01-15T02:28:38;30.33;;;10.88;;
59418;SDS011;45224;50.904;6.038;2024-01-15T02:30:08;29.23;;;11.32;;
59418;SDS011;45224;50.904;6.038;2024-01-15T02:31:41;30.23;;;10.82;;
59418;SDS011;45224;50.904;6.038;2024-01-15T02:33:11;31.65;;;11.52;;
59418;SDS011;45224;50.904;6.038;2024-01-15T02:34:42;33.38;;;11.57;;
59418;SDS011;45224;50.904;6.038;2024-01-15T02:36:12;26.05;;;10.80;;
59418;SDS011;45224;50.904;6.038;2024-01-15T02:37:43;29.65;;;10.95;;
59418;SDS011;45224;50.904;6.038;2024-01-15T02:39:13;29.10;;;11.98;;
59418;SDS011;45224;50.904;6.038;2024-01-15T02:40:44;26.65;;;10.25;;
59418;SDS011;45224;50.904;6.038;2024-01-15T02:42:15;25.65;;;11.00;;
59418;SDS011;45224;50.904;6.038;2024-01-15T02:43:45;23.38;;;10.18;;
59418;SDS011;45224;50.904;6.038;2024-01-15T02:45:16;26.90;;;10.25;;
59418;SDS011;45224;50.904;6.038;2024-01-15T02:46:47;25.25;;;10.48;;
59418;SDS011;45224;50.904;6.038;2024-01-15T02:48:17;25.20;;;10.85;;
59418;SDS011;45224;50.904;6.038;2024-01-15T02:49:48;25.30;;;10.20;;
59418;SDS011;45224;50.904;6.038;2024-01-15T02:51:18;27.75;;;10.32;;
59418;SDS011;45224;50.904;6.038;2024-01-15T02:52:48;25.52;;;10.40;;
59418;SDS011;45224;50.904;6.038;2024-01-15T02:54:19;28.30;;;10.75;;
59418;SDS011;45224;50.904;6.038;2024-01-15T02:55:49;23.63;;;10.20;;
59418;SDS011;45224;50.904;6.038;2024-01-15T02:57:20;19.52;;;8.43;;
59418;SDS011;45224;50.904;6.038;2024-01-15T02:58:50;25.55;;;9.18;;
59418;SDS011;45224;50.904;6.038;2024-01-15T03:00:21;22.80;;;9.30;;
59418;SDS011;45224;50.904;6.038;2024-01-15T03:01:51;22.75;;;9.50;;
59418;SDS011;45224;50.904;6.038;2024-01-15T03:03:21;21.92;;;9.43;;
59418;SDS011;45224;50.904;6.038;2024-01-15T03:04:52;23.60;;;9.77;;
59418;SDS011;45224;50.904;6.038;2024-01-15T03:06:22;22.35;;;8.85;;
59418;SDS011;45224;50.904;6.038;2024-01-15T03:07:53;20.70;;;9.40;;
59418;SDS011;45224;50.904;6.038;2024-01-15T03:09:23;18.75;;;8.48;;
59418;SDS011;45224;50.904;6.038;2024-01-15T03:10:54;22.88;;;8.85;;
59418;SDS011;45224;50.904;6.038;2024-01-15T03:12:24;24.77;;;9.85;;
59418;SDS011;45224;50.904;6.038;2024-01-15T03:13:54;18.23;;;7.93;;
59418;SDS011;45224;50.904;6.038;2024-01-15T03:15:25;23.50;;;9.80;;
59418;SDS011;45224;50.904;6.038;2024-01-15T03:16:55;23.98;;;8.43;;
59418;SDS011;45224;50.904;6.038;2024-01-15T03:18:26;22.58;;;9.23;;
59418;SDS011;45224;50.904;6.038;2024-01-15T03:19:56;25.40;;;9.40;;
59418;SDS011;45224;50.904;6.038;2024-01-15T03:21:27;22.65;;;8.77;;
59418;SDS011;45224;50.904;6.038;2024-01-15T03:22:57;24.35;;;9.02;;
59418;SDS011;45224;50.904;6.038;2024-01-15T03:24:28;21.48;;;9.02;;
59418;SDS011;45224;50.904;6.038;2024-01-15T03:25:58;23.67;;;8.52;;
59418;SDS011;45224;50.904;6.038;2024-01-15T03:27:28;24.48;;;9.18;;
59418;SDS011;45224;50.904;6.038;2024-01-15T03:28:59;20.05;;;8.75;;
59418;SDS011;45224;50.904;6.038;2024-01-15T03:30:29;23.92;;;9.38;;
59418;SDS011;45224;50.904;6.038;2024-01-15T03:32:00;19.80;;;8.52;;
59418;SDS011;45224;50.904;6.038;2024-01-15T03:33:30;24.30;;;8.98;;
59418;SDS011;45224;50.904;6.038;2024-01-15T03:35:01;21.98;;;8.18;;
59418;SDS011;45224;50.904;6.038;2024-01-15T03:36:31;23.15;;;9.07;;
59418;SDS011;45224;50.904;6.038;2024-01-15T03:38:02;20.55;;;9.23;;
59418;SDS011;45224;50.904;6.038;2024-01-15T03:39:32;26.13;;;9.35;;
59418;SDS011;45224;50.904;6.038;2024-01-15T03:41:03;22.00;;;9.57;;
59418;SDS011;45224;50.904;6.038;2024-01-15T03:42:33;23.73;;;9.55;;
59418;SDS011;45224;50.904;6.038;2024-01-15T03:44:04;30.02;;;9.05;;
59418;SDS011;45224;50.904;6.038;2024-01-15T03:45:34;25.95;;;9.50;;
59418;SDS011;45224;50.904;6.038;2024-01-15T03:47:04;26.65;;;9.73;;
59418;SDS011;45224;50.904;6.038;2024-01-15T03:48:35;21.45;;;8.95;;
59418;SDS011;45224;50.904;6.038;2024-01-15T03:50:06;25.05;;;9.00;;
59418;SDS011;45224;50.904;6.038;2024-01-15T03:51:36;22.65;;;9.63;;
59418;SDS011;45224;50.904;6.038;2024-01-15T03:53:07;21.83;;;9.45;;
59418;SDS011;45224;50.904;6.038;2024-01-15T03:54:37;26.60;;;8.52;;
59418;SDS011;45224;50.904;6.038;2024-01-15T03:56:08;19.48;;;8.43;;
59418;SDS011;45224;50.904;6.038;2024-01-15T03:57:38;22.40;;;9.80;;
59418;SDS011;45224;50.904;6.038;2024-01-15T03:59:09;22.08;;;9.20;;
59418;SDS011;45224;50.904;6.038;2024-01-15T04:00:39;17.50;;;8.02;;
59418;SDS011;45224;50.904;6.038;2024-01-15T04:02:09;19.15;;;7.80;;
59418;SDS011;45224;50.904;6.038;2024-01-15T04:03:40;19.10;;;8.10;;
59418;SDS011;45224;50.904;6.038;2024-01-15T04:05:10;19.40;;;8.32;;
59418;SDS011;45224;50.904;6.038;2024-01-15T04:06:41;17.52;;;7.32;;
59418;SDS011;45224;50.904;6.038;2024-01-15T04:08:11;16.92;;;7.65;;
59418;SDS011;45224;50.904;6.038;2024-01-15T04:09:41;17.55;;;7.35;;
59418;SDS011;45224;50.904;6.038;2024-01-15T04:11:12;22.60;;;8.50;;
59418;SDS011;45224;50.904;6.038;2024-01-15T04:12:42;19.02;;;7.65;;
59418;SDS011;45224;50.904;6.038;2024-01-15T04:14:13;17.67;;;7.60;;
59418;SDS011;45224;50.904;6.038;2024-01-15T04:15:43;18.42;;;7.40;;
59418;SDS011;45224;50.904;6.038;2024-01-15T04:17:14;21.02;;;7.45;;
59418;SDS011;45224;50.904;6.038;2024-01-15T04:18:44;16.08;;;7.25;;
59418;SDS011;45224;50.904;6.038;2024-01-15T04:20:15;16.58;;;7.28;;
59418;SDS011;45224;50.904;6.038;2024-01-15T04:21:45;21.77;;;8.52;;
59418;SDS011;45224;50.904;6.038;2024-01-15T04:23:15;17.35;;;7.80;;
59418;SDS011;45224;50.904;6.038;2024-01-15T04:24:46;19.50;;;8.32;;
59418;SDS011;45224;50.904;6.038;2024-01-15T04:26:16;19.40;;;8.48;;
59418;SDS011;45224;50.904;6.038;2024-01-15T04:27:47;16.15;;;7.80;;
59418;SDS011;45224;50.904;6.038;2024-01-15T04:29:17;20.13;;;7.63;;
59418;SDS011;45224;50.904;6.038;2024-01-15T04:30:47;17.77;;;8.00;;
59418;SDS011;45224;50.904;6.038;2024-01-15T04:32:18;17.55;;;7.20;;
59418;SDS011;45224;50.904;6.038;2024-01-15T04:33:49;12.77;;;6.15;;
59418;SDS011;45224;50.904;6.038;2024-01-15T04:35:19;18.70;;;7.25;;
59418;SDS011;45224;50.904;6.038;2024-01-15T04:36:50;19.70;;;7.70;;
59418;SDS011;45224;50.904;6.038;2024-01-15T04:38:20;16.05;;;7.35;;
59418;SDS011;45224;50.904;6.038;2024-01-15T04:39:51;14.85;;;7.38;;
59418;SDS011;45224;50.904;6.038;2024-01-15T04:41:24;16.15;;;7.50;;
59418;SDS011;45224;50.904;6.038;2024-01-15T04:42:55;22.08;;;8.75;;
59418;SDS011;45224;50.904;6.038;2024-01-15T04:44:25;17.70;;;7.85;;
59418;SDS011;45224;50.904;6.038;2024-01-15T04:45:56;20.08;;;8.27;;
59418;SDS011;45224;50.904;6.038;2024-01-15T04:47:26;19.17;;;8.10;;
59418;SDS011;45224;50.904;6.038;2024-01-15T04:48:57;18.48;;;7.28;;
59418;SDS011;45224;50.904;6.038;2024-01-15T04:50:27;20.02;;;8.18;;
59418;SDS011;45224;50.904;6.038;2024-01-15T04:51:57;18.25;;;8.55;;
59418;SDS011;45224;50.904;6.038;2024-01-15T04:53:28;21.25;;;8.45;;
59418;SDS011;45224;50.904;6.038;2024-01-15T04:54:58;17.38;;;7.47;;
59418;SDS011;45224;50.904;6.038;2024-01-15T04:56:29;19.50;;;7.97;;
59418;SDS011;45224;50.904;6.038;2024-01-15T04:57:59;17.20;;;7.47;;
59418;SDS011;45224;50.904;6.038;2024-01-15T04:59:30;20.00;;;7.90;;
59418;SDS011;45224;50.904;6.038;2024-01-15T05:01:00;18.10;;;7.43;;
59418;SDS011;45224;50.904;6.038;2024-01-15T05:02:30;17.70;;;7.68;;
59418;SDS011;45224;50.904;6.038;2024-01-15T05:04:01;20.33;;;8.23;;
59418;SDS011;45224;50.904;6.038;2024-01-15T05:05:31;20.70;;;8.05;;
59418;SDS011;45224;50.904;6.038;2024-01-15T05:07:02;18.88;;;7.32;;
59418;SDS011;45224;50.904;6.038;2024-01-15T05:08:32;21.27;;;8.07;;
59418;SDS011;45224;50.904;6.038;2024-01-15T05:10:03;21.05;;;8.25;;
59418;SDS011;45224;50.904;6.038;2024-01-15T05:11:34;18.30;;;8.35;;
59418;SDS011;45224;50.904;6.038;2024-01-15T05:13:04;21.60;;;7.80;;
59418;SDS011;45224;50.904;6.038;2024-01-15T05:14:35;17.83;;;8.10;;
59418;SDS011;45224;50.904;6.038;2024-01-15T05:16:05;19.83;;;7.60;;
59418;SDS011;45224;50.904;6.038;2024-01-15T05:17:36;19.42;;;6.95;;
59418;SDS011;45224;50.904;6.038;2024-01-15T05:19:07;18.45;;;7.28;;
59418;SDS011;45224;50.904;6.038;2024-01-15T05:20:37;16.88;;;7.28;;
59418;SDS011;45224;50.904;6.038;2024-01-15T05:22:08;17.05;;;7.30;;
59418;SDS011;45224;50.904;6.038;2024-01-15T05:23:38;18.02;;;7.50;;
59418;SDS011;45224;50.904;6.038;2024-01-15T05:25:09;15.27;;;7.15;;
59418;SDS011;45224;50.904;6.038;2024-01-15T05:26:39;14.73;;;6.72;;
59418;SDS011;45224;50.904;6.038;2024-01-15T05:28:10;13.48;;;6.30;;
59418;SDS011;45224;50.904;6.038;2024-01-15T05:29:40;15.50;;;6.97;;
59418;SDS011;45224;50.904;6.038;2024-01-15T05:31:10;13.05;;;6.00;;
59418;SDS011;45224;50.904;6.038;2024-01-15T05:32:41;16.30;;;6.45;;
59418;SDS011;45224;50.904;6.038;2024-01-15T05:34:11;17.77;;;6.90;;
59418;SDS011;45224;50.904;6.038;2024-01-15T05:35:42;17.33;;;7.13;;
59418;SDS011;45224;50.904;6.038;2024-01-15T05:37:13;14.82;;;6.68;;
59418;SDS011;45224;50.904;6.038;2024-01-15T05:38:43;14.00;;;6.20;;
59418;SDS011;45224;50.904;6.038;2024-01-15T05:40:13;13.88;;;6.53;;
59418;SDS011;45224;50.904;6.038;2024-01-15T05:41:44;15.05;;;6.80;;
59418;SDS011;45224;50.904;6.038;2024-01-15T05:43:14;13.23;;;6.50;;
59418;SDS011;45224;50.904;6.038;2024-01-15T05:44:45;14.52;;;6.90;;
59418;SDS011;45224;50.904;6.038;2024-01-15T05:46:15;15.25;;;6.68;;
59418;SDS011;45224;50.904;6.038;2024-01-15T05:47:47;14.38;;;6.25;;
59418;SDS011;45224;50.904;6.038;2024-01-15T05:49:18;14.98;;;6.45;;
59418;SDS011;45224;50.904;6.038;2024-01-15T05:50:48;18.95;;;7.18;;
59418;SDS011;45224;50.904;6.038;2024-01-15T05:52:18;14.30;;;6.75;;
59418;SDS011;45224;50.904;6.038;2024-01-15T05:53:50;16.20;;;6.53;;
59418;SDS011;45224;50.904;6.038;2024-01-15T05:55:21;13.65;;;6.43;;
59418;SDS011;45224;50.904;6.038;2024-01-15T05:56:51;16.27;;;6.85;;
59418;SDS011;45224;50.904;6.038;2024-01-15T05:58:22;17.67;;;6.78;;
59418;SDS011;45224;50.904;6.038;2024-01-15T05:59:52;14.15;;;6.50;;
59418;SDS011;45224;50.904;6.038;2024-01-15T06:01:23;14.52;;;6.30;;
59418;SDS011;45224;50.904;6.038;2024-01-15T06:02:53;14.90;;;6.40;;
59418;SDS011;45224;50.904;6.038;2024-01-15T06:04:24;16.27;;;6.13;;
59418;SDS011;45224;50.904;6.038;2024-01-15T06:05:54;15.52;;;6.18;;
59418;SDS011;45224;50.904;6.038;2024-01-15T06:07:24;14.50;;;6.68;;
59418;SDS011;45224;50.904;6.038;2024-01-15T06:08:55;15.90;;;6.60;;
59418;SDS011;45224;50.904;6.038;2024-01-15T06:10:29;17.30;;;6.93;;
59418;SDS011;45224;50.904;6.038;2024-01-15T06:11:59;17.58;;;6.85;;
59418;SDS011;45224;50.904;6.038;2024-01-15T06:13:30;16.08;;;6.60;;
59418;SDS011;45224;50.904;6.038;2024-01-15T06:15:00;18.33;;;7.78;;
59418;SDS011;45224;50.904;6.038;2024-01-15T06:16:31;17.65;;;6.90;;
59418;SDS011;45224;50.904;6.038;2024-01-15T06:18:01;18.27;;;7.75;;
59418;SDS011;45224;50.904;6.038;2024-01-15T06:19:32;16.73;;;7.20;;
59418;SDS011;45224;50.904;6.038;2024-01-15T06:21:03;16.50;;;7.22;;
59418;SDS011;45224;50.904;6.038;2024-01-15T06:22:33;18.45;;;7.47;;
59418;SDS011;45224;50.904;6.038;2024-01-15T06:24:04;21.48;;;8.52;;
59418;SDS011;45224;50.904;6.038;2024-01-15T06:25:34;18.23;;;7.75;;
59418;SDS011;45224;50.904;6.038;2024-01-15T06:27:05;17.85;;;7.68;;
59418;SDS011;45224;50.904;6.038;2024-01-15T06:28:35;16.95;;;8.25;;
59418;SDS011;45224;50.904;6.038;2024-01-15T06:30:06;17.38;;;7.68;;
59418;SDS011;45224;50.904;6.038;2024-01-15T06:31:36;15.98;;;7.45;;
59418;SDS011;45224;50.904;6.038;2024-01-15T06:33:07;21.70;;;8.43;;
59418;SDS011;45224;50.904;6.038;2024-01-15T06:34:37;18.23;;;7.38;;
59418;SDS011;45224;50.904;6.038;2024-01-15T06:36:08;18.17;;;8.20;;
59418;SDS011;45224;50.904;6.038;2024-01-15T06:37:38;19.55;;;8.80;;
59418;SDS011;45224;50.904;6.038;2024-01-15T06:39:09;19.88;;;8.98;;
59418;SDS011;45224;50.904;6.038;2024-01-15T06:40:40;20.70;;;8.18;;
59418;SDS011;45224;50.904;6.038;2024-01-15T06:42:15;20.65;;;8.80;;
59418;SDS011;45224;50.904;6.038;2024-01-15T06:43:46;21.08;;;9.25;;
59418;SDS011;45224;50.904;6.038;2024-01-15T06:45:16;17.88;;;8.63;;
59418;SDS011;45224;50.904;6.038;2024-01-15T06:46:47;22.45;;;8.05;;
59418;SDS011;45224;50.904;6.038;2024-01-15T06:48:17;22.05;;;8.35;;
59418;SDS011;45224;50.904;6.038;2024-01-15T06:49:48;26.20;;;10.85;;
59418;SDS011;45224;50.904;6.038;2024-01-15T06:51:20;21.27;;;9.13;;
59418;SDS011;45224;50.904;6.038;2024-01-15T06:52:51;26.05;;;9.23;;
59418;SDS011;45224;50.904;6.038;2024-01-15T06:54:21;23.60;;;9.60;;
59418;SDS011;45224;50.904;6.038;2024-01-15T06:55:52;21.48;;;10.23;;
59418;SDS011;45224;50.904;6.038;2024-01-15T06:57:22;21.67;;;8.85;;
59418;SDS011;45224;50.904;6.038;2024-01-15T06:58:52;24.15;;;10.85;;
59418;SDS011;45224;50.904;6.038;2024-01-15T07:00:23;24.88;;;10.82;;
59418;SDS011;45224;50.904;6.038;2024-01-15T07:01:54;24.67;;;10.77;;
59418;SDS011;45224;50.904;6.038;2024-01-15T07:03:25;25.80;;;10.80;;
59418;SDS011;45224;50.904;6.038;2024-01-15T07:04:55;23.63;;;9.73;;
59418;SDS011;45224;50.904;6.038;2024-01-15T07:06:26;21.70;;;10.45;;
59418;SDS011;45224;50.904;6.038;2024-01-15T07:07:56;22.00;;;7.22;;
59418;SDS011;45224;50.904;6.038;2024-01-15T07:09:27;21.40;;;9.38;;
59418;SDS011;45224;50.904;6.038;2024-01-15T07:10:57;25.48;;;9.70;;
59418;SDS011;45224;50.904;6.038;2024-01-15T07:12:27;23.90;;;9.15;;
59418;SDS011;45224;50.904;6.038;2024-01-15T07:13:58;24.63;;;9.85;;
59418;SDS011;45224;50.904;6.038;2024-01-15T07:15:28;24.30;;;9.85;;
59418;SDS011;45224;50.904;6.038;2024-01-15T07:16:59;23.85;;;10.45;;
59418;SDS011;45224;50.904;6.038;2024-01-15T07:18:29;21.00;;;8.70;;
59418;SDS011;45224;50.904;6.038;2024-01-15T07:20:00;24.52;;;9.73;;
59418;SDS011;45224;50.904;6.038;2024-01-15T07:21:31;22.67;;;8.40;;
59418;SDS011;45224;50.904;6.038;2024-01-15T07:23:02;22.45;;;9.60;;
59418;SDS011;45224;50.904;6.038;2024-01-15T07:24:33;20.02;;;9.55;;
59418;SDS011;45224;50.904;6.038;2024-01-15T07:27:37;22.67;;;8.27;;
59418;SDS011;45224;50.904;6.038;2024-01-15T07:29:07;21.85;;;9.05;;
59418;SDS011;45224;50.904;6.038;2024-01-15T07:30:38;22.45;;;8.77;;
59418;SDS011;45224;50.904;6.038;2024-01-15T07:32:09;22.00;;;10.05;;
59418;SDS011;45224;50.904;6.038;2024-01-15T07:33:40;20.20;;;8.48;;
59418;SDS011;45224;50.904;6.038;2024-01-15T07:35:10;18.60;;;8.00;;
59418;SDS011;45224;50.904;6.038;2024-01-15T07:36:40;23.42;;;10.35;;
59418;SDS011;45224;50.904;6.038;2024-01-15T07:38:11;24.83;;;10.13;;
59418;SDS011;45224;50.904;6.038;2024-01-15T07:39:42;20.55;;;8.68;;
59418;SDS011;45224;50.904;6.038;2024-01-15T07:41:13;22.42;;;9.52;;
59418;SDS011;45224;50.904;6.038;2024-01-15T07:42:43;22.60;;;8.05;;
59418;SDS011;45224;50.904;6.038;2024-01-15T07:44:14;19.17;;;7.78;;
59418;SDS011;45224;50.904;6.038;2024-01-15T07:45:45;23.27;;;8.20;;
59418;SDS011;45224;50.904;6.038;2024-01-15T07:47:15;18.15;;;7.88;;
59418;SDS011;45224;50.904;6.038;2024-01-15T07:48:46;18.25;;;8.65;;
59418;SDS011;45224;50.904;6.038;2024-01-15T07:50:16;21.45;;;8.43;;
59418;SDS011;45224;50.904;6.038;2024-01-15T07:51:49;16.20;;;7.10;;
59418;SDS011;45224;50.904;6.038;2024-01-15T07:53:19;18.98;;;7.70;;
59418;SDS011;45224;50.904;6.038;2024-01-15T07:54:49;19.15;;;7.32;;
59418;SDS011;45224;50.904;6.038;2024-01-15T07:56:20;16.77;;;7.53;;
59418;SDS011;45224;50.904;6.038;2024-01-15T07:57:51;17.42;;;7.32;;
59418;SDS011;45224;50.904;6.038;2024-01-15T07:59:23;14.38;;;7.25;;
59418;SDS011;45224;50.904;6.038;2024-01-15T08:00:54;17.25;;;6.97;;
59418;SDS011;45224;50.904;6.038;2024-01-15T08:02:24;15.82;;;6.75;;
59418;SDS011;45224;50.904;6.038;2024-01-15T08:03:55;13.30;;;5.97;;
59418;SDS011;45224;50.904;6.038;2024-01-15T08:05:25;16.40;;;6.72;;
59418;SDS011;45224;50.904;6.038;2024-01-15T08:06:56;15.85;;;6.55;;
59418;SDS011;45224;50.904;6.038;2024-01-15T08:08:27;9.52;;;5.00;;
59418;SDS011;45224;50.904;6.038;2024-01-15T08:09:57;13.32;;;5.65;;
59418;SDS011;45224;50.904;6.038;2024-01-15T08:11:28;12.23;;;5.38;;
59418;SDS011;45224;50.904;6.038;2024-01-15T08:12:58;11.95;;;5.53;;
59418;SDS011;45224;50.904;6.038;2024-01-15T08:14:29;13.93;;;6.10;;
59418;SDS011;45224;50.904;6.038;2024-01-15T08:15:59;13.95;;;5.15;;
59418;SDS011;45224;50.904;6.038;2024-01-15T08:17:30;13.70;;;6.38;;
59418;SDS011;45224;50.904;6.038;2024-01-15T08:19:01;12.82;;;5.63;;
59418;SDS011;45224;50.904;6.038;2024-01-15T08:20:31;11.27;;;4.85;;
59418;SDS011;45224;50.904;6.038;2024-01-15T08:22:02;10.05;;;5.20;;
59418;SDS011;45224;50.904;6.038;2024-01-15T08:23:34;13.25;;;5.72;;
59418;SDS011;45224;50.904;6.038;2024-01-15T08:25:05;9.73;;;4.57;;
59418;SDS011;45224;50.904;6.038;2024-01-15T08:26:35;13.30;;;4.50;;
59418;SDS011;45224;50.904;6.038;2024-01-15T08:28:06;9.63;;;4.78;;
59418;SDS011;45224;50.904;6.038;2024-01-15T08:29:36;9.98;;;4.80;;
59418;SDS011;45224;50.904;6.038;2024-01-15T08:31:07;8.63;;;4.55;;
59418;SDS011;45224;50.904;6.038;2024-01-15T08:32:37;10.52;;;5.07;;
59418;SDS011;45224;50.904;6.038;2024-01-15T08:34:12;9.73;;;4.55;;
59418;SDS011;45224;50.904;6.038;2024-01-15T08:35:42;9.68;;;4.70;;
59418;SDS011;45224;50.904;6.038;2024-01-15T08:37:13;11.40;;;4.28;;
59418;SDS011;45224;50.904;6.038;2024-01-15T08:38:43;10.43;;;4.38;;
59418;SDS011;45224;50.904;6.038;2024-01-15T08:40:15;9.57;;;4.80;;
59418;SDS011;45224;50.904;6.038;2024-01-15T08:41:45;11.30;;;4.28;;
59418;SDS011;45224;50.904;6.038;2024-01-15T08:44:49;8.33;;;4.20;;
59418;SDS011;45224;50.904;6.038;2024-01-15T08:46:20;9.05;;;4.22;;
59418;SDS011;45224;50.904;6.038;2024-01-15T08:47:50;8.35;;;3.97;;
59418;SDS011;45224;50.904;6.038;2024-01-15T08:49:21;9.40;;;4.32;;
59418;SDS011;45224;50.904;6.038;2024-01-15T08:50:51;8.80;;;4.07;;
59418;SDS011;45224;50.904;6.038;2024-01-15T08:52:22;9.23;;;4.22;;
59418;SDS011;45224;50.904;6.038;2024-01-15T08:53:52;8.27;;;3.58;;
59418;SDS011;45224;50.904;6.038;2024-01-15T08:55:23;8.77;;;4.13;;
59418;SDS011;45224;50.904;6.038;2024-01-15T08:56:53;8.02;;;3.83;;
59418;SDS011;45224;50.904;6.038;2024-01-15T08:58:24;9.00;;;4.38;;
59418;SDS011;45224;50.904;6.038;2024-01-15T08:59:55;10.40;;;3.85;;